createdAt,value
2022-12-09T00:01:14.858Z,22.20
2022-12-09T00:03:44.108Z,18.48
2022-12-09T00:06:16.000Z,24.70
2022-12-09T00:08:45.873Z,23.77
2022-12-09T00:11:15.080Z,30.48
2022-12-09T00:13:43.667Z,25.33
2022-12-09T00:16:14.810Z,21.05
2022-12-09T00:18:44.010Z,23.35
2022-12-09T00:21:14.085Z,25.35
2022-12-09T00:23:43.026Z,24.05
2022-12-09T00:26:13.119Z,24.20
2022-12-09T00:28:41.610Z,25.75
2022-12-09T00:31:10.014Z,20.83
2022-12-09T00:33:38.187Z,92.18
2022-12-09T00:36:09.866Z,28.70
2022-12-09T00:38:38.690Z,32.38
2022-12-09T00:41:07.566Z,23.73
2022-12-09T00:43:37.549Z,24.42
2022-12-09T00:46:06.159Z,23.75
2022-12-09T00:48:36.224Z,25.65
2022-12-09T00:51:04.777Z,21.58
2022-12-09T00:53:33.326Z,24.27
2022-12-09T00:56:01.854Z,22.95
2022-12-09T00:58:30.202Z,22.67
2022-12-09T01:00:59.827Z,31.42
2022-12-09T01:03:28.650Z,21.77
2022-12-09T01:05:57.435Z,21.60
2022-12-09T01:08:25.930Z,21.42
2022-12-09T01:10:54.148Z,20.60
2022-12-09T01:13:22.367Z,23.05
2022-12-09T01:15:50.577Z,20.98
2022-12-09T01:18:20.113Z,24.23
2022-12-09T01:20:57.905Z,21.75
2022-12-09T01:23:26.894Z,19.42
2022-12-09T01:25:54.991Z,18.90
2022-12-09T01:28:23.140Z,19.60
2022-12-09T01:30:51.595Z,19.27
2022-12-09T01:33:21.262Z,17.58
2022-12-09T01:35:49.695Z,21.77
2022-12-09T01:38:17.785Z,19.30
2022-12-09T01:40:47.703Z,20.08
2022-12-09T01:43:19.298Z,22.20
2022-12-09T01:45:47.933Z,22.15
2022-12-09T01:48:18.147Z,20.05
2022-12-09T01:50:52.503Z,21.85
2022-12-09T01:53:25.083Z,17.15
2022-12-09T01:55:55.521Z,16.17
2022-12-09T01:58:24.090Z,12.63
2022-12-09T02:00:52.704Z,14.57
2022-12-09T02:03:20.984Z,15.77
2022-12-09T02:05:51.107Z,16.90
2022-12-09T02:08:21.188Z,14.40
2022-12-09T02:10:58.092Z,17.52
2022-12-09T02:13:39.400Z,15.27
2022-12-09T02:16:14.320Z,16.60
2022-12-09T02:18:51.699Z,14.63
2022-12-09T02:21:28.792Z,14.77
2022-12-09T02:24:03.037Z,16.08
2022-12-09T02:26:39.228Z,17.25
2022-12-09T02:29:46.354Z,25.30
2022-12-09T02:32:38.632Z,21.23
2022-12-09T02:35:12.080Z,19.25
2022-12-09T02:37:45.454Z,18.25
2022-12-09T02:40:19.491Z,11.88
2022-12-09T02:42:50.177Z,19.23
2022-12-09T02:45:21.089Z,15.55
2022-12-09T02:47:53.002Z,16.40
2022-12-09T02:50:26.774Z,14.20
2022-12-09T02:52:57.562Z,11.30
2022-12-09T02:55:26.352Z,15.73
2022-12-09T02:58:00.633Z,14.73
2022-12-09T03:00:30.061Z,16.77
2022-12-09T03:03:01.731Z,15.13
2022-12-09T03:05:42.409Z,13.98
2022-12-09T03:08:19.249Z,13.40
2022-12-09T03:11:02.300Z,15.23
2022-12-09T03:13:54.018Z,12.80
2022-12-09T03:16:31.115Z,14.02
2022-12-09T03:19:05.340Z,11.70
2022-12-09T03:21:42.152Z,12.50
2022-12-09T03:24:12.895Z,13.23
2022-12-09T03:26:43.709Z,10.32
2022-12-09T03:29:17.801Z,16.52
2022-12-09T03:31:48.616Z,13.52
2022-12-09T03:34:19.989Z,10.77
2022-12-09T03:39:27.284Z,13.13
2022-12-09T03:41:59.604Z,14.63
2022-12-09T03:44:35.692Z,14.50
2022-12-09T03:47:08.053Z,10.85
2022-12-09T03:49:38.361Z,11.73
2022-12-09T03:52:13.432Z,8.52
2022-12-09T03:54:44.912Z,16.13
2022-12-09T03:57:18.957Z,16.58
2022-12-09T03:59:53.479Z,9.50
2022-12-09T04:02:22.298Z,15.80
2022-12-09T04:04:50.712Z,10.05
2022-12-09T04:07:20.778Z,12.55
2022-12-09T04:09:49.052Z,17.90
2022-12-09T04:12:17.646Z,15.43
2022-12-09T04:14:46.408Z,14.70
2022-12-09T04:17:14.713Z,8.50
2022-12-09T04:19:43.289Z,12.13
2022-12-09T04:22:15.083Z,11.77
2022-12-09T04:24:44.710Z,13.48
2022-12-09T04:27:13.298Z,11.00
2022-12-09T04:29:41.505Z,12.38
2022-12-09T04:32:09.706Z,9.38
2022-12-09T04:34:37.911Z,16.20
2022-12-09T04:37:06.433Z,14.02
2022-12-09T04:39:34.930Z,13.63
2022-12-09T04:42:04.649Z,11.23
2022-12-09T04:44:32.914Z,13.15
2022-12-09T04:47:01.296Z,13.60
2022-12-09T04:49:29.638Z,16.90
2022-12-09T04:51:58.188Z,10.15
2022-12-09T04:54:26.679Z,14.07
2022-12-09T04:56:54.939Z,9.60
2022-12-09T04:59:24.458Z,14.93
2022-12-09T05:01:52.855Z,12.98
2022-12-09T05:04:21.505Z,13.05
2022-12-09T05:06:50.189Z,16.65
2022-12-09T05:09:18.945Z,11.82
2022-12-09T05:11:47.356Z,17.33
2022-12-09T05:14:15.887Z,12.38
2022-12-09T05:16:46.087Z,13.15
2022-12-09T05:19:14.533Z,12.20
2022-12-09T05:21:44.135Z,13.98
2022-12-09T05:24:12.526Z,11.48
2022-12-09T05:26:41.262Z,12.52
2022-12-09T05:29:09.441Z,14.70
2022-12-09T05:31:37.841Z,16.38
2022-12-09T05:34:07.773Z,12.02
2022-12-09T05:36:36.084Z,13.18
2022-12-09T05:39:04.956Z,12.77
2022-12-09T05:41:33.315Z,18.70
2022-12-09T05:44:02.200Z,11.43
2022-12-09T05:46:31.407Z,13.15
2022-12-09T05:48:59.847Z,21.55
2022-12-09T05:51:31.338Z,19.08
2022-12-09T05:56:31.829Z,14.52
2022-12-09T05:59:00.814Z,14.95
2022-12-09T06:01:31.984Z,12.02
2022-12-09T06:04:00.514Z,10.55
2022-12-09T06:06:32.150Z,13.40
2022-12-09T06:09:02.809Z,12.70
2022-12-09T06:11:32.963Z,13.18
2022-12-09T06:14:01.673Z,14.33
2022-12-09T06:16:30.721Z,13.63
2022-12-09T06:18:59.348Z,14.50
2022-12-09T06:21:27.959Z,14.20
2022-12-09T06:23:57.985Z,14.82
2022-12-09T06:26:28.241Z,19.88
2022-12-09T06:28:58.434Z,14.00
2022-12-09T06:31:28.443Z,16.48
2022-12-09T06:33:58.716Z,12.17
2022-12-09T06:36:29.073Z,16.83
2022-12-09T06:39:07.629Z,17.77
2022-12-09T06:41:38.119Z,10.13
2022-12-09T06:44:07.379Z,14.40
2022-12-09T06:46:36.103Z,12.90
2022-12-09T06:49:04.760Z,12.25
2022-12-09T06:51:33.307Z,14.32
2022-12-09T06:54:03.223Z,14.90
2022-12-09T06:56:32.669Z,17.08
2022-12-09T06:59:01.307Z,11.48
2022-12-09T07:01:30.101Z,10.98
2022-12-09T07:03:58.673Z,11.10
2022-12-09T07:06:31.021Z,13.10
2022-12-09T07:09:01.283Z,12.40
2022-12-09T07:11:32.006Z,11.98
2022-12-09T07:14:03.105Z,14.55
2022-12-09T07:16:31.938Z,18.40
2022-12-09T07:19:00.574Z,16.90
2022-12-09T07:21:30.433Z,14.63
2022-12-09T07:24:00.758Z,23.00
2022-12-09T07:26:35.210Z,17.27
2022-12-09T07:29:04.490Z,18.08
2022-12-09T07:31:33.637Z,13.27
2022-12-09T07:34:03.018Z,15.60
2022-12-09T07:36:33.642Z,22.48
2022-12-09T07:39:09.109Z,10.02
2022-12-09T07:41:39.488Z,18.83
2022-12-09T07:44:08.043Z,19.20
2022-12-09T07:46:37.117Z,15.13
2022-12-09T07:49:07.259Z,17.58
2022-12-09T07:51:36.275Z,18.80
2022-12-09T07:54:05.390Z,16.02
2022-12-09T07:56:33.786Z,11.35
2022-12-09T07:59:07.110Z,11.18
2022-12-09T08:01:36.436Z,17.40
2022-12-09T08:04:07.266Z,11.43
2022-12-09T08:06:37.086Z,16.17
2022-12-09T08:09:09.267Z,14.00
2022-12-09T08:11:38.001Z,15.65
2022-12-09T08:14:13.062Z,29.85
2022-12-09T08:16:43.410Z,15.85
2022-12-09T08:19:12.656Z,12.13
2022-12-09T08:21:41.700Z,15.43
2022-12-09T08:24:12.870Z,11.45
2022-12-09T08:29:14.313Z,12.90
2022-12-09T08:31:44.387Z,12.70
2022-12-09T08:34:13.550Z,13.00
2022-12-09T08:36:43.295Z,22.27
2022-12-09T08:39:12.385Z,15.82
2022-12-09T08:41:41.187Z,12.50
2022-12-09T08:44:13.599Z,15.98
2022-12-09T08:46:44.622Z,18.88
2022-12-09T08:49:14.344Z,14.63
2022-12-09T08:51:42.834Z,15.63
2022-12-09T08:54:11.428Z,15.23
2022-12-09T08:56:40.149Z,18.95
2022-12-09T08:59:08.472Z,18.23
2022-12-09T09:01:38.195Z,12.07
2022-12-09T09:04:09.496Z,16.90
2022-12-09T09:06:39.721Z,14.60
2022-12-09T09:09:10.209Z,17.48
2022-12-09T09:11:39.458Z,17.10
2022-12-09T09:14:10.827Z,15.40
2022-12-09T09:19:14.190Z,11.63
2022-12-09T09:21:42.510Z,13.57
2022-12-09T09:24:12.909Z,20.33
2022-12-09T09:26:44.254Z,9.80
2022-12-09T09:29:13.476Z,14.95
2022-12-09T09:31:43.336Z,14.55
2022-12-09T09:34:12.458Z,16.37
2022-12-09T09:36:42.904Z,12.18
2022-12-09T09:39:11.851Z,13.73
2022-12-09T09:41:47.186Z,13.35
2022-12-09T09:44:23.406Z,12.00
2022-12-09T09:46:55.530Z,10.73
2022-12-09T09:49:32.039Z,19.05
2022-12-09T09:52:05.290Z,12.45
2022-12-09T09:54:33.728Z,14.18
2022-12-09T09:57:07.835Z,15.38
2022-12-09T09:59:44.750Z,16.55
2022-12-09T10:02:24.072Z,14.27
2022-12-09T10:05:05.824Z,14.93
2022-12-09T10:07:42.381Z,14.00
2022-12-09T10:10:23.239Z,10.70
2022-12-09T10:13:08.360Z,17.30
2022-12-09T10:15:47.191Z,14.73
2022-12-09T10:18:21.036Z,15.35
2022-12-09T10:20:49.647Z,12.50
2022-12-09T10:23:18.396Z,15.65
2022-12-09T10:25:51.943Z,16.60
2022-12-09T10:28:23.936Z,15.35
2022-12-09T10:30:54.506Z,16.85
2022-12-09T10:33:33.523Z,12.32
2022-12-09T10:36:02.884Z,10.95
2022-12-09T10:38:32.429Z,11.00
2022-12-09T10:41:07.312Z,11.48
2022-12-09T10:43:38.872Z,9.88
2022-12-09T10:46:19.694Z,14.05
2022-12-09T10:48:58.954Z,9.95
2022-12-09T10:51:30.144Z,8.30
2022-12-09T10:54:00.989Z,15.88
2022-12-09T10:56:32.486Z,13.70
2022-12-09T10:59:12.708Z,12.48
2022-12-09T11:01:50.644Z,14.38
2022-12-09T11:04:26.348Z,12.98
2022-12-09T11:07:00.080Z,14.75
2022-12-09T11:09:32.244Z,13.35
2022-12-09T11:12:02.251Z,11.93
2022-12-09T11:14:35.751Z,12.55
2022-12-09T11:17:16.638Z,11.27
2022-12-09T11:19:50.908Z,9.10
2022-12-09T11:22:39.660Z,11.38
2022-12-09T11:25:24.949Z,12.07
2022-12-09T11:27:56.168Z,11.48
2022-12-09T11:30:27.009Z,15.80
2022-12-09T11:32:59.745Z,8.80
2022-12-09T11:35:38.512Z,9.90
2022-12-09T11:38:19.489Z,20.42
2022-12-09T11:41:04.224Z,11.00
2022-12-09T11:43:40.609Z,5.97
2022-12-09T11:46:21.580Z,10.32
2022-12-09T11:48:54.980Z,13.43
2022-12-09T11:51:30.073Z,20.00
2022-12-09T11:54:05.701Z,10.40
2022-12-09T11:56:36.024Z,10.75
2022-12-09T11:59:07.792Z,10.70
2022-12-09T12:01:48.862Z,11.63
2022-12-09T12:04:21.234Z,12.15
2022-12-09T12:06:56.758Z,14.05
2022-12-09T12:09:30.860Z,11.88
2022-12-09T12:12:06.211Z,12.27
2022-12-09T12:14:38.738Z,11.88
2022-12-09T12:17:15.037Z,13.15
2022-12-09T12:19:47.163Z,10.57
2022-12-09T12:22:52.979Z,10.55
2022-12-09T12:25:35.007Z,9.40
2022-12-09T12:28:22.872Z,13.73
2022-12-09T12:30:59.046Z,10.55
2022-12-09T12:36:39.984Z,8.52
2022-12-09T12:39:15.337Z,8.45
2022-12-09T12:41:52.892Z,11.55
2022-12-09T12:44:52.957Z,12.13
2022-12-09T12:47:26.132Z,16.10
2022-12-09T12:50:32.308Z,12.13
2022-12-09T12:53:10.240Z,10.75
2022-12-09T12:55:49.068Z,10.82
2022-12-09T12:58:30.028Z,12.88
2022-12-09T13:01:04.484Z,13.20
2022-12-09T13:03:40.512Z,14.63
2022-12-09T13:06:12.884Z,12.50
2022-12-09T13:08:45.634Z,11.43
2022-12-09T13:11:18.117Z,12.40
2022-12-09T13:13:52.759Z,16.38
2022-12-09T13:16:27.956Z,10.00
2022-12-09T13:19:07.521Z,14.07
2022-12-09T13:21:36.312Z,22.45
2022-12-09T13:24:18.190Z,18.88
2022-12-09T13:26:52.794Z,19.92
2022-12-09T13:29:38.035Z,13.48
2022-12-09T13:32:21.382Z,18.85
2022-12-09T13:34:54.647Z,11.05
2022-12-09T13:38:00.189Z,12.65
2022-12-09T13:40:35.408Z,12.45
2022-12-09T13:43:13.026Z,10.48
2022-12-09T13:45:51.660Z,14.60
2022-12-09T13:48:55.351Z,14.15
2022-12-09T13:51:27.490Z,11.10
2022-12-09T13:54:03.817Z,14.68
2022-12-09T13:56:35.415Z,14.20
2022-12-09T13:59:24.805Z,16.10
2022-12-09T14:01:58.768Z,9.30
2022-12-09T14:04:30.467Z,9.25
2022-12-09T14:07:10.716Z,7.88
2022-12-09T14:09:50.954Z,8.43
2022-12-09T14:12:51.998Z,8.57
2022-12-09T14:15:36.568Z,16.63
2022-12-09T14:18:26.691Z,11.85
2022-12-09T14:21:29.095Z,13.32
2022-12-09T14:24:34.481Z,11.70
2022-12-09T14:27:15.470Z,15.30
2022-12-09T14:29:55.723Z,14.85
2022-12-09T14:32:27.210Z,14.27
2022-12-09T14:35:23.976Z,14.85
2022-12-09T14:38:21.107Z,14.18
2022-12-09T14:41:07.198Z,16.75
2022-12-09T14:43:47.148Z,18.52
2022-12-09T14:46:25.577Z,17.83
2022-12-09T14:48:57.893Z,17.63
2022-12-09T14:51:34.454Z,19.67
2022-12-09T14:54:06.049Z,15.95
2022-12-09T14:56:35.170Z,15.10
2022-12-09T14:59:07.081Z,12.38
2022-12-09T15:01:56.367Z,19.45
2022-12-09T15:04:31.897Z,16.80
2022-12-09T15:07:16.085Z,16.00
2022-12-09T15:09:52.614Z,15.20
2022-12-09T15:12:22.970Z,18.17
2022-12-09T15:14:56.375Z,20.27
2022-12-09T15:17:28.418Z,17.45
2022-12-09T15:20:01.016Z,20.45
2022-12-09T15:22:33.470Z,19.23
2022-12-09T15:25:03.255Z,20.10
2022-12-09T15:27:31.738Z,17.33
2022-12-09T15:29:59.882Z,19.20
2022-12-09T15:32:30.368Z,17.30
2022-12-09T15:35:18.086Z,22.80
2022-12-09T15:37:48.468Z,22.02
2022-12-09T15:40:20.279Z,23.08
2022-12-09T15:42:52.190Z,19.42
2022-12-09T15:45:24.406Z,21.05
2022-12-09T15:47:57.735Z,23.55
2022-12-09T15:50:30.285Z,25.30
2022-12-09T15:53:06.670Z,21.48
2022-12-09T15:55:42.284Z,22.27
2022-12-09T15:58:14.189Z,28.23
2022-12-09T16:00:48.938Z,24.77
2022-12-09T16:03:20.264Z,24.77
2022-12-09T16:08:22.237Z,24.92
2022-12-09T16:10:52.018Z,22.00
2022-12-09T16:13:21.379Z,30.55
2022-12-09T16:15:52.603Z,26.77
2022-12-09T16:18:24.394Z,26.73
2022-12-09T16:21:18.875Z,29.83
2022-12-09T16:23:52.915Z,34.00
2022-12-09T16:26:28.465Z,35.35
2022-12-09T16:28:59.374Z,33.67
2022-12-09T16:31:28.197Z,33.47
2022-12-09T16:33:56.910Z,35.28
2022-12-09T16:36:27.763Z,32.40
2022-12-09T16:39:38.229Z,37.22
2022-12-09T16:42:22.336Z,38.20
2022-12-09T16:44:50.800Z,37.70
2022-12-09T16:47:20.980Z,30.33
2022-12-09T16:49:49.919Z,33.08
2022-12-09T16:52:21.479Z,40.72
2022-12-09T16:54:51.020Z,39.30
2022-12-09T16:57:21.635Z,37.13
2022-12-09T16:59:51.028Z,32.70
2022-12-09T17:02:26.476Z,38.67
2022-12-09T17:04:54.675Z,41.13
2022-12-09T17:07:22.821Z,48.65
2022-12-09T17:09:51.168Z,42.28
2022-12-09T17:12:20.744Z,43.42
2022-12-09T17:14:49.018Z,44.88
2022-12-09T17:17:17.188Z,49.83
2022-12-09T17:19:45.341Z,39.97
2022-12-09T17:22:13.633Z,40.35
2022-12-09T17:24:41.847Z,43.67
2022-12-09T17:27:10.549Z,43.75
2022-12-09T17:29:40.123Z,39.15
2022-12-09T17:32:08.399Z,40.40
2022-12-09T17:34:36.601Z,41.22
2022-12-09T17:37:04.937Z,39.67
2022-12-09T17:39:33.422Z,41.88
2022-12-09T17:42:01.968Z,41.75
2022-12-09T17:44:30.322Z,41.10
2022-12-09T17:46:59.799Z,41.58
2022-12-09T17:49:27.999Z,43.95
2022-12-09T17:51:56.312Z,41.05
2022-12-09T17:54:26.613Z,47.40
2022-12-09T17:56:54.922Z,43.58
2022-12-09T17:59:23.237Z,40.28
2022-12-09T18:01:51.367Z,43.40
2022-12-09T18:04:21.055Z,37.03
2022-12-09T18:06:49.260Z,41.67
2022-12-09T18:09:20.043Z,37.40
2022-12-09T18:11:48.556Z,39.05
2022-12-09T18:14:17.713Z,32.75
2022-12-09T18:16:47.167Z,36.00
2022-12-09T18:19:17.693Z,39.78
2022-12-09T18:21:47.628Z,44.03
2022-12-09T18:24:15.861Z,37.22
2022-12-09T18:26:43.987Z,35.53
2022-12-09T18:29:12.460Z,40.50
2022-12-09T18:31:41.574Z,37.80
2022-12-09T18:34:09.846Z,34.83
2022-12-09T18:36:38.130Z,36.47
2022-12-09T18:39:08.122Z,38.00
2022-12-09T18:41:36.483Z,34.78
2022-12-09T18:44:06.619Z,33.35
2022-12-09T18:46:37.784Z,34.60
2022-12-09T18:51:36.254Z,39.30
2022-12-09T18:54:05.383Z,38.67
2022-12-09T18:56:35.671Z,27.95
2022-12-09T18:59:07.121Z,24.92
2022-12-09T19:01:39.720Z,26.85
2022-12-09T19:04:12.025Z,33.72
2022-12-09T19:06:42.018Z,24.67
2022-12-09T19:09:12.144Z,31.20
2022-12-09T19:11:43.834Z,34.63
2022-12-09T19:14:12.358Z,35.13
2022-12-09T19:16:41.072Z,37.72
2022-12-09T19:19:10.916Z,30.67
2022-12-09T19:21:40.212Z,35.08
2022-12-09T19:24:09.634Z,33.65
2022-12-09T19:26:38.130Z,33.90
2022-12-09T19:29:09.106Z,34.20
2022-12-09T19:31:39.348Z,39.50
2022-12-09T19:34:09.468Z,34.43
2022-12-09T19:36:37.929Z,26.95
2022-12-09T19:39:09.386Z,31.98
2022-12-09T19:41:38.500Z,32.65
2022-12-09T19:44:08.874Z,33.53
2022-12-09T19:46:38.651Z,33.17
2022-12-09T19:49:06.842Z,29.90
2022-12-09T19:51:35.258Z,27.63
2022-12-09T19:54:03.738Z,32.67
2022-12-09T19:56:32.015Z,33.75
2022-12-09T19:59:01.470Z,30.25
2022-12-09T20:01:33.727Z,29.63
2022-12-09T20:04:19.216Z,32.08
2022-12-09T20:06:52.386Z,31.88
2022-12-09T20:09:24.121Z,32.25
2022-12-09T20:11:52.828Z,34.63
2022-12-09T20:14:21.201Z,30.23
2022-12-09T20:16:50.786Z,31.45
2022-12-09T20:19:19.840Z,29.42
2022-12-09T20:21:48.898Z,36.42
2022-12-09T20:24:17.190Z,32.53
2022-12-09T20:26:45.451Z,32.92
2022-12-09T20:29:14.089Z,34.80
2022-12-09T20:31:43.763Z,36.20
2022-12-09T20:34:16.194Z,32.03
2022-12-09T20:36:46.080Z,35.88
2022-12-09T20:39:17.937Z,36.38
2022-12-09T20:41:46.637Z,32.67
2022-12-09T20:44:16.211Z,31.20
2022-12-09T20:46:47.492Z,36.10
2022-12-09T20:51:47.040Z,27.83
2022-12-09T20:54:15.662Z,29.52
2022-12-09T20:56:43.940Z,26.17
2022-12-09T20:59:13.809Z,27.25
2022-12-09T21:01:43.656Z,21.50
2022-12-09T21:04:12.059Z,22.00
2022-12-09T21:06:43.010Z,24.02
2022-12-09T21:09:17.659Z,23.58
2022-12-09T21:11:46.082Z,24.80
2022-12-09T21:14:14.625Z,25.33
2022-12-09T21:16:47.039Z,20.85
2022-12-09T21:19:17.206Z,22.40
2022-12-09T21:21:48.520Z,22.23
2022-12-09T21:26:46.452Z,21.65
2022-12-09T21:29:16.404Z,23.33
2022-12-09T21:31:48.274Z,27.20
2022-12-09T21:34:17.756Z,19.70
2022-12-09T21:36:48.356Z,20.13
2022-12-09T21:39:17.464Z,22.27
2022-12-09T21:41:45.785Z,19.05
2022-12-09T21:44:16.949Z,21.48
2022-12-09T21:46:45.720Z,20.40
2022-12-09T21:49:14.845Z,20.05
2022-12-09T21:51:43.840Z,20.45
2022-12-09T21:54:13.732Z,20.52
2022-12-09T21:56:42.113Z,19.70
2022-12-09T21:59:12.251Z,23.38
2022-12-09T22:01:42.465Z,23.42
2022-12-09T22:04:13.502Z,22.73
2022-12-09T22:06:41.822Z,21.23
2022-12-09T22:09:11.847Z,15.25
2022-12-09T22:11:42.074Z,21.38
2022-12-09T22:14:11.402Z,19.42
2022-12-09T22:16:42.267Z,19.25
2022-12-09T22:19:14.201Z,19.85
2022-12-09T22:21:42.900Z,16.95
2022-12-09T22:24:12.974Z,18.92
2022-12-09T22:26:43.654Z,17.35
2022-12-09T22:29:13.258Z,21.17
2022-12-09T22:31:42.093Z,24.05
2022-12-09T22:34:13.499Z,17.02
2022-12-09T22:36:42.371Z,17.75
2022-12-09T22:39:13.947Z,16.00
2022-12-09T22:41:44.117Z,16.40
2022-12-09T22:44:14.043Z,16.38
2022-12-09T22:46:43.195Z,14.43
2022-12-09T22:49:13.104Z,21.52
2022-12-09T22:51:42.019Z,19.20
2022-12-09T22:54:11.270Z,14.00
2022-12-09T22:56:41.560Z,16.60
2022-12-09T22:59:11.437Z,16.30
2022-12-09T23:01:43.243Z,19.40
2022-12-09T23:04:12.975Z,15.48
2022-12-09T23:06:41.987Z,14.25
2022-12-09T23:09:14.626Z,16.58
2022-12-09T23:11:43.447Z,15.07
2022-12-09T23:14:13.227Z,16.30
2022-12-09T23:16:41.501Z,16.80
2022-12-09T23:19:11.623Z,15.57
2022-12-09T23:21:41.935Z,16.45
2022-12-09T23:24:12.674Z,12.47
2022-12-09T23:26:42.683Z,19.10
2022-12-09T23:29:16.278Z,12.60
2022-12-09T23:31:44.980Z,13.02
2022-12-09T23:34:14.266Z,15.13
2022-12-09T23:36:44.401Z,13.60
2022-12-09T23:39:16.425Z,14.65
2022-12-09T23:41:46.303Z,13.00
2022-12-09T23:44:18.967Z,15.32
2022-12-09T23:46:47.257Z,13.18
2022-12-09T23:49:16.229Z,15.50
2022-12-09T23:51:45.205Z,14.50
2022-12-09T23:54:14.989Z,14.98
2022-12-09T23:56:48.234Z,13.77
2022-12-09T23:59:20.049Z,9.95
